Time;durP1;ratioP1;P1;durP2;ratioP2;P2;SDS_P1;SDS_P2;PMS_P1;PMS_P2;Temp;Humidity;BMP_temperature;BMP_pressure;BME280_temperature;BME280_humidity;BME280_pressure;Samples;Min_cycle;Max_cycle;Signal;HPM_P1;HPM_P2
2022/05/11 00:00:49;;;;;;;10.10;4.70;;;;;;;5.23;68.91;99099.33;104521;1276;75612;-25
2022/05/11 00:03:18;;;;;;;11.60;5.20;;;;;;;5.13;68.94;99091.98;104725;1276;74245;-26
2022/05/11 00:05:46;;;;;;;10.40;4.30;;;;;;;5.03;70.03;99094.24;104638;1276;74290;-25
2022/05/11 00:08:15;;;;;;;24.00;9.80;;;;;;;5.46;70.43;99090.21;104557;1276;61244;-25
2022/05/11 00:10:44;;;;;;;33.10;15.10;;;;;;;6.10;68.53;99094.14;104590;1276;63510;-25
2022/05/11 00:13:12;;;;;;;98.30;39.00;;;;;;;6.24;67.18;99089.96;104708;1276;75552;-26
2022/05/11 00:15:41;;;;;;;148.90;61.50;;;;;;;6.15;67.08;99091.44;104718;1275;75942;-26
2022/05/11 00:18:10;;;;;;;146.60;68.10;;;;;;;5.98;67.00;99093.29;104593;1279;74615;-26
2022/05/11 00:20:39;;;;;;;244.30;112.10;;;;;;;5.79;67.59;99095.86;104777;1276;61176;-26
2022/05/11 00:23:07;;;;;;;197.70;85.00;;;;;;;5.58;68.07;99096.36;104725;1275;62082;-26
2022/05/11 00:25:36;;;;;;;199.20;88.30;;;;;;;5.40;68.86;99092.44;104612;1274;75411;-25
2022/05/11 00:28:05;;;;;;;153.20;65.90;;;;;;;5.23;69.83;99091.92;104676;1274;76172;-25
2022/05/11 00:30:34;;;;;;;124.70;56.20;;;;;;;5.05;69.97;99095.52;104684;1274;73362;-25
2022/05/11 00:33:03;;;;;;;174.10;73.80;;;;;;;4.87;70.04;99093.95;104761;1274;61149;-25
2022/05/11 00:35:33;;;;;;;149.30;55.50;;;;;;;4.74;71.89;99096.05;104645;1274;61133;-26
2022/05/11 00:38:03;;;;;;;156.90;58.80;;;;;;;5.23;70.92;99097.40;104549;1274;75268;-25
2022/05/11 00:40:33;;;;;;;164.80;67.80;;;;;;;5.92;68.23;99100.21;104649;1274;74851;-25
2022/05/11 00:43:02;;;;;;;163.00;63.90;;;;;;;6.08;67.03;99100.30;104758;1274;74861;-25
2022/05/11 00:45:30;;;;;;;171.90;77.40;;;;;;;5.96;67.09;99099.09;104889;1274;60987;-25
2022/05/11 00:50:56;;;;;;;153.70;63.00;;;;;;;5.48;67.47;99098.71;104666;1274;75413;-27
2022/05/11 00:53:24;;;;;;;145.30;61.10;;;;;;;5.22;68.14;99097.80;104623;1274;75842;-26
2022/05/11 00:55:55;;;;;;;136.90;58.80;;;;;;;4.96;69.53;99099.48;104644;1277;72389;-26
2022/05/11 00:58:39;;;;;;;138.00;60.10;;;;;;;4.69;70.23;99100.83;104537;1277;61337;-27
2022/05/11 01:01:08;;;;;;;137.80;60.80;;;;;;;4.47;71.09;99098.45;104446;1278;61759;-26
2022/05/11 01:03:42;;;;;;;107.00;42.00;;;;;;;4.29;72.09;99097.71;104644;1277;75372;-27
2022/05/11 01:06:10;;;;;;;107.20;43.60;;;;;;;4.70;73.00;99095.40;104692;1274;74057;-26
2022/05/11 01:08:39;;;;;;;94.80;41.30;;;;;;;5.26;71.09;99096.54;104653;1274;73694;-27
2022/05/11 01:11:07;;;;;;;89.90;37.20;;;;;;;5.33;69.93;99090.11;104654;1274;61149;-26
2022/05/11 01:13:37;;;;;;;96.70;42.40;;;;;;;5.19;69.70;99096.60;104687;1274;61036;-26
2022/05/11 01:16:06;;;;;;;104.70;43.90;;;;;;;4.99;69.48;99097.06;104564;1275;75831;-26
2022/05/11 01:18:34;;;;;;;81.10;39.40;;;;;;;4.78;70.41;99098.95;104813;1274;76029;-26
2022/05/11 01:21:04;;;;;;;88.90;40.60;;;;;;;4.57;70.77;99099.94;104342;1280;74271;-26
2022/05/11 01:23:57;;;;;;;90.50;40.30;;;;;;;4.39;70.68;99098.17;104720;1274;61047;-27
2022/05/11 01:26:26;;;;;;;87.20;39.00;;;;;;;4.20;70.71;99096.11;104428;1277;61131;-26
2022/05/11 01:28:54;;;;;;;84.10;37.60;;;;;;;4.06;70.89;99093.95;104579;1274;75676;-26
2022/05/11 01:31:23;;;;;;;68.30;26.40;;;;;;;3.95;71.64;99094.20;104762;1274;75686;-26
2022/05/11 01:33:51;;;;;;;71.40;30.60;;;;;;;4.39;71.94;99101.07;104634;1274;74406;-26
2022/05/11 01:36:26;;;;;;;77.90;32.70;;;;;;;5.01;70.51;99100.73;104739;1274;62042;-25
2022/05/11 01:39:05;;;;;;;66.00;28.60;;;;;;;5.14;69.31;99099.29;104577;1274;62295;-25
2022/05/11 01:41:39;;;;;;;76.00;36.60;;;;;;;5.02;68.21;99097.45;104587;1277;75617;-26
2022/05/11 01:44:13;;;;;;;77.00;34.50;;;;;;;4.81;69.04;99095.48;104604;1278;76162;-26
2022/05/11 01:46:44;;;;;;;81.50;37.10;;;;;;;4.57;69.89;99088.45;104657;1274;74510;-25
2022/05/11 01:49:12;;;;;;;66.80;34.10;;;;;;;4.26;71.36;99090.77;104727;1274;61120;-27
2022/05/11 01:51:40;;;;;;;75.00;35.40;;;;;;;3.97;72.34;99087.19;104884;1274;62114;-26
2022/05/11 01:54:09;;;;;;;72.50;35.40;;;;;;;3.78;73.10;99085.80;104914;1274;75575;-26
2022/05/11 01:56:37;;;;;;;47.70;20.80;;;;;;;3.62;73.25;99086.95;104763;1274;75754;-26
2022/05/11 01:59:06;;;;;;;62.40;27.60;;;;;;;4.06;73.50;99083.63;104645;1275;74416;-26
2022/05/11 02:01:35;;;;;;;73.40;31.00;;;;;;;4.63;72.14;99088.57;104676;1274;61272;-25
2022/05/11 02:04:03;;;;;;;54.50;22.50;;;;;;;4.70;71.27;99088.36;104509;1277;61202;-25
2022/05/11 02:09:20;;;;;;;51.80;25.60;;;;;;;4.23;71.99;99084.43;104941;1274;75889;-26
2022/05/11 02:11:48;;;;;;;70.00;33.50;;;;;;;3.94;72.23;99081.16;104873;1274;74304;-26
2022/05/11 02:14:16;;;;;;;71.60;36.20;;;;;;;3.71;71.74;99077.93;104653;1277;61083;-26
2022/05/11 02:16:45;;;;;;;83.70;39.40;;;;;;;3.52;72.94;99084.04;104731;1274;61110;-28
2022/05/11 02:19:13;;;;;;;83.10;39.80;;;;;;;3.34;73.42;99081.70;104756;1274;75428;-26
2022/05/11 02:21:42;;;;;;;66.70;25.50;;;;;;;3.20;73.71;99082.76;104759;1274;75772;-27
2022/05/11 02:24:11;;;;;;;68.30;30.40;;;;;;;3.64;73.67;99087.88;104617;1274;74483;-25
2022/05/11 02:26:39;;;;;;;66.30;27.60;;;;;;;4.27;71.83;99089.73;104797;1274;61074;-26
2022/05/11 02:29:07;;;;;;;61.50;27.90;;;;;;;4.39;69.99;99092.33;104569;1274;61098;-25
2022/05/11 02:31:36;;;;;;;60.20;29.70;;;;;;;4.21;68.96;99092.08;104626;1274;75543;-26
2022/05/11 02:34:06;;;;;;;50.70;26.30;;;;;;;3.96;69.19;99084.70;104585;1275;74884;-26
2022/05/11 02:36:36;;;;;;;41.70;21.30;;;;;;;3.69;69.72;99089.53;104561;1275;74841;-26
2022/05/11 02:39:04;;;;;;;32.40;16.30;;;;;;;3.46;69.98;99088.48;104720;1274;61256;-26
2022/05/11 02:41:32;;;;;;;57.20;29.10;;;;;;;3.22;69.82;99089.15;104747;1274;61041;-25
2022/05/11 02:44:01;;;;;;;65.90;33.80;;;;;;;3.01;72.65;99079.92;104631;1277;73739;-26
2022/05/11 02:46:29;;;;;;;44.20;19.20;;;;;;;2.85;74.82;99079.31;104747;1274;75969;-26
2022/05/11 02:48:58;;;;;;;41.70;20.20;;;;;;;3.37;74.63;99078.92;104645;1274;74364;-26
2022/05/11 02:51:26;;;;;;;37.90;18.70;;;;;;;4.15;72.24;99080.05;104781;1274;61265;-25
2022/05/11 02:53:56;;;;;;;25.60;11.70;;;;;;;4.39;70.68;99082.02;104565;1275;61732;-26
2022/05/11 02:56:25;;;;;;;24.00;10.70;;;;;;;4.46;70.60;99080.29;104715;1277;75357;-25
2022/05/11 02:58:54;;;;;;;27.50;13.20;;;;;;;4.62;69.76;99076.27;104721;1274;76420;-25
2022/05/11 03:01:23;;;;;;;31.20;14.90;;;;;;;4.81;68.52;99078.65;104627;1275;74607;-26
2022/05/11 03:03:51;;;;;;;27.40;13.90;;;;;;;4.93;66.52;99076.92;104596;1274;61170;-26
2022/05/11 03:06:24;;;;;;;23.00;12.70;;;;;;;4.95;66.20;99075.29;104536;1275;62061;-26
2022/05/11 03:08:52;;;;;;;25.30;11.80;;;;;;;4.94;67.08;99077.38;104626;1277;75575;-26
2022/05/11 03:11:21;;;;;;;23.60;11.40;;;;;;;4.95;67.36;99078.73;104669;1274;76033;-26
2022/05/11 03:13:50;;;;;;;21.90;10.40;;;;;;;4.98;67.26;99072.67;104754;1275;74427;-26
2022/05/11 03:16:26;;;;;;;21.30;12.30;;;;;;;5.72;67.46;99075.91;104786;1274;61125;-25
2022/05/11 03:18:58;;;;;;;29.40;13.90;;;;;;;6.62;65.76;99074.51;104636;1277;61841;-25
2022/05/11 03:21:26;;;;;;;24.30;14.30;;;;;;;7.17;63.68;99077.64;104885;1274;75620;-25
2022/05/11 03:23:55;;;;;;;29.40;15.60;;;;;;;7.40;63.03;99078.70;104920;1274;76063;-25
2022/05/11 03:26:23;;;;;;;44.90;18.30;;;;;;;7.50;62.30;99075.80;105009;1274;74574;-25
2022/05/11 03:28:52;;;;;;;39.80;20.60;;;;;;;7.55;62.03;99079.27;104651;1274;61143;-25
2022/05/11 03:31:20;;;;;;;32.90;19.00;;;;;;;7.62;61.95;99080.90;104668;1277;61475;-25
2022/05/11 03:36:36;;;;;;;39.00;19.50;;;;;;;8.10;60.90;99079.75;104739;1277;76108;-28
2022/05/11 03:39:04;;;;;;;31.70;18.10;;;;;;;8.33;60.32;99078.00;104648;1274;74248;-27
2022/05/11 03:41:33;;;;;;;34.90;16.40;;;;;;;8.46;60.07;99080.20;104635;1274;61048;-25
2022/05/11 03:44:01;;;;;;;27.20;16.50;;;;;;;8.64;59.92;99083.81;104584;1275;62028;-28
2022/05/11 03:46:30;;;;;;;24.10;13.90;;;;;;;8.96;59.44;99086.66;104609;1277;75315;-25
2022/05/11 03:48:59;;;;;;;32.20;12.70;;;;;;;9.22;58.43;99086.66;104651;1275;74834;-26
2022/05/11 03:51:27;;;;;;;19.10;12.10;;;;;;;9.40;58.09;99088.94;104588;1278;74394;-25
2022/05/11 03:53:57;;;;;;;18.20;10.40;;;;;;;9.45;57.84;99088.19;104740;1274;61850;-26
2022/05/11 03:56:26;;;;;;;16.10;10.20;;;;;;;9.58;57.89;99092.20;104653;1274;61060;-26
2022/05/11 03:58:56;;;;;;;16.20;9.80;;;;;;;9.72;58.29;99094.45;104480;1277;75481;-26
2022/05/11 04:01:24;;;;;;;16.80;8.80;;;;;;;9.89;58.13;99095.45;104910;1274;76450;-26
2022/05/11 04:03:53;;;;;;;12.80;7.80;;;;;;;10.00;57.91;99089.40;104733;1274;74297;-26
2022/05/11 04:06:23;;;;;;;15.10;7.80;;;;;;;10.18;57.67;99087.27;104740;1274;61041;-26
2022/05/11 04:08:51;;;;;;;13.10;7.60;;;;;;;10.46;56.82;99089.05;104758;1275;62023;-26
2022/05/11 04:11:22;;;;;;;12.40;7.20;;;;;;;10.70;56.42;99091.17;104689;1277;75744;-26
2022/05/11 04:13:52;;;;;;;10.70;6.60;;;;;;;10.96;55.35;99090.96;104872;1274;76104;-26
2022/05/11 04:16:20;;;;;;;11.50;5.90;;;;;;;11.21;54.91;99091.69;105056;1271;74541;-25
2022/05/11 04:18:49;;;;;;;15.50;6.80;;;;;;;11.53;53.99;99089.55;105098;1271;62100;-25
2022/05/11 04:21:18;;;;;;;10.50;6.60;;;;;;;11.72;53.19;99088.82;104913;1271;61058;-25
2022/05/11 04:23:46;;;;;;;9.10;5.60;;;;;;;11.87;53.33;99091.03;105058;1271;74897;-25
2022/05/11 04:26:15;;;;;;;11.50;5.90;;;;;;;12.06;52.11;99092.95;105110;1271;75965;-25
2022/05/11 04:28:43;;;;;;;10.40;5.10;;;;;;;12.35;51.25;99093.83;105117;1271;74202;-25
2022/05/11 04:31:13;;;;;;;16.80;5.20;;;;;;;12.64;50.37;99092.02;105127;1271;61062;-25
2022/05/11 04:33:42;;;;;;;9.70;5.80;;;;;;;12.87;50.14;99092.88;105093;1271;62186;-25
2022/05/11 04:36:10;;;;;;;13.50;5.80;;;;;;;13.00;49.12;99097.34;105077;1271;75939;-25
2022/05/11 04:38:39;;;;;;;15.20;5.70;;;;;;;13.12;49.31;99101.55;105050;1271;75970;-25
2022/05/11 04:41:07;;;;;;;9.90;5.50;;;;;;;13.29;49.10;99099.25;104914;1271;73236;-26
2022/05/11 04:43:36;;;;;;;12.20;6.30;;;;;;;13.49;48.71;99102.64;105118;1271;61157;-25
2022/05/11 04:46:04;;;;;;;16.20;7.10;;;;;;;13.72;46.65;99107.73;105118;1271;61051;-25
2022/05/11 04:48:33;;;;;;;16.40;8.60;;;;;;;13.86;47.32;99104.15;105184;1271;75511;-25
2022/05/11 04:51:03;;;;;;;19.50;9.00;;;;;;;13.97;46.54;99104.29;105184;1271;76092;-24
2022/05/11 04:53:31;;;;;;;14.20;8.60;;;;;;;13.93;45.92;99104.85;105107;1271;73246;-25
2022/05/11 04:55:59;;;;;;;30.10;10.20;;;;;;;14.15;46.27;99103.52;105124;1271;61075;-25
2022/05/11 04:58:28;;;;;;;29.20;10.10;;;;;;;14.43;44.73;99102.80;105070;1271;61861;-25
2022/05/11 05:00:57;;;;;;;19.00;9.50;;;;;;;14.67;44.59;99097.61;105015;1274;75883;-24
2022/05/11 05:03:26;;;;;;;18.10;12.30;;;;;;;14.88;44.67;99094.75;105132;1272;74870;-25
2022/05/11 05:05:55;;;;;;;21.70;12.10;;;;;;;15.08;44.37;99095.28;105129;1274;74233;-24
2022/05/11 05:08:25;;;;;;;27.60;12.70;;;;;;;15.20;44.31;99095.16;105103;1271;61144;-25
2022/05/11 05:10:54;;;;;;;19.60;11.00;;;;;;;15.24;43.67;99095.91;105050;1271;62022;-25
2022/05/11 05:13:23;;;;;;;15.90;8.90;;;;;;;15.34;43.48;99094.64;105013;1271;75342;-25
2022/05/11 05:15:54;;;;;;;15.60;8.50;;;;;;;15.44;42.00;99094.83;104864;1271;76020;-25
2022/05/11 05:18:23;;;;;;;14.80;7.50;;;;;;;15.42;42.22;99091.92;104764;1274;74503;-25
2022/05/11 05:20:52;;;;;;;14.60;7.30;;;;;;;15.54;40.99;99088.17;105016;1271;61197;-25
2022/05/11 05:23:22;;;;;;;16.00;7.60;;;;;;;15.59;41.46;99085.25;105126;1274;61635;-25
2022/05/11 05:25:50;;;;;;;13.30;6.30;;;;;;;15.79;41.02;99087.45;104803;1274;75001;-26
2022/05/11 05:31:09;;;;;;;13.50;5.60;;;;;;;16.19;38.70;99086.55;105013;1271;74354;-25
2022/05/11 05:33:41;;;;;;;10.90;4.80;;;;;;;16.22;39.27;99082.58;105134;1271;62227;-25
2022/05/11 05:36:10;;;;;;;10.20;5.40;;;;;;;16.25;38.48;99080.36;104887;1274;61340;-25
2022/05/11 05:38:39;;;;;;;9.70;4.70;;;;;;;16.11;38.25;99076.13;105140;1274;75861;-26
2022/05/11 05:41:10;;;;;;;9.30;5.30;;;;;;;16.17;38.96;99078.14;105129;1274;73779;-25
2022/05/11 05:43:38;;;;;;;8.50;4.10;;;;;;;16.38;37.86;99080.02;104600;1271;74521;-25
2022/05/11 05:46:07;;;;;;;8.70;5.00;;;;;;;16.59;38.25;99080.66;104832;1274;61613;-24
2022/05/11 05:48:35;;;;;;;9.20;5.00;;;;;;;16.68;37.02;99082.29;104916;1274;61114;-25
2022/05/11 05:51:06;;;;;;;6.00;4.10;;;;;;;16.74;35.43;99085.11;105154;1271;75488;-26
2022/05/11 05:53:40;;;;;;;7.10;4.00;;;;;;;16.66;36.06;99087.04;104893;1272;75986;-24
2022/05/11 05:56:09;;;;;;;5.60;3.70;;;;;;;16.52;36.97;99089.39;105090;1271;74181;-26
2022/05/11 05:58:38;;;;;;;4.80;3.00;;;;;;;16.50;35.78;99089.81;104778;1274;61201;-25
2022/05/11 06:01:06;;;;;;;5.20;3.30;;;;;;;16.58;36.11;99091.54;105154;1271;62009;-26
2022/05/11 06:03:35;;;;;;;4.00;2.90;;;;;;;16.58;36.09;99086.48;105141;1271;75508;-25
2022/05/11 06:06:07;;;;;;;4.70;2.50;;;;;;;16.62;35.63;99081.31;105097;1271;75981;-27
2022/05/11 06:08:36;;;;;;;8.20;2.90;;;;;;;16.78;35.67;99083.86;104740;1274;73640;-26
2022/05/11 06:11:06;;;;;;;6.00;2.90;;;;;;;16.94;35.12;99084.45;104939;1271;62616;-25
2022/05/11 06:13:35;;;;;;;6.80;2.40;;;;;;;16.97;35.00;99084.64;104799;1272;62364;-25
2022/05/11 06:16:09;;;;;;;3.30;2.10;;;;;;;17.10;35.07;99085.22;104908;1271;75552;-25
2022/05/11 06:18:41;;;;;;;6.70;2.20;;;;;;;17.08;34.30;99084.73;104770;1271;74738;-25
2022/05/11 06:21:10;;;;;;;7.10;2.40;;;;;;;17.15;34.24;99082.38;104865;1271;74618;-26
2022/05/11 06:23:40;;;;;;;6.30;2.10;;;;;;;17.28;33.67;99082.10;104667;1271;62373;-25
2022/05/11 06:26:09;;;;;;;6.90;2.00;;;;;;;17.40;34.28;99079.41;104652;1274;61796;-25
2022/05/11 06:28:40;;;;;;;4.60;1.60;;;;;;;17.40;33.38;99079.36;105126;1271;75308;-25
2022/05/11 06:31:18;;;;;;;4.00;1.50;;;;;;;17.59;32.42;99080.04;104767;1272;76217;-25
2022/05/11 06:33:49;;;;;;;2.60;1.40;;;;;;;17.72;31.85;99081.46;104785;1272;74294;-25
2022/05/11 06:36:18;;;;;;;1.70;1.00;;;;;;;17.82;30.08;99078.92;104980;1271;62122;-25
2022/05/11 06:38:47;;;;;;;3.40;1.10;;;;;;;17.73;28.60;99078.77;105138;1271;61140;-25
2022/05/11 06:41:18;;;;;;;27.20;2.00;;;;;;;17.30;30.14;99077.92;105146;1271;75624;-25
2022/05/11 06:43:47;;;;;;;2.00;1.00;;;;;;;17.04;29.11;99077.38;105029;1271;74628;-25
2022/05/11 06:46:15;;;;;;;2.20;1.10;;;;;;;17.04;30.20;99076.24;104638;1275;73389;-25
2022/05/11 06:48:48;;;;;;;2.00;1.10;;;;;;;17.01;30.48;99078.23;105019;1271;61094;-25
2022/05/11 06:51:17;;;;;;;2.80;1.10;;;;;;;16.97;30.40;99077.15;105115;1271;61085;-25
2022/05/11 06:59:29;;;;;;;1.90;1.00;;;;;;;17.74;29.89;99083.69;105114;1271;74365;-25
2022/05/11 07:01:58;;;;;;;3.90;0.80;;;;;;;17.78;30.58;99081.30;105088;1271;61169;-24
2022/05/11 07:04:27;;;;;;;3.00;0.90;;;;;;;17.90;29.00;99079.44;105167;1271;62343;-24
2022/05/11 07:06:58;;;;;;;7.10;1.30;;;;;;;17.96;28.14;99076.92;105074;1271;75574;-25
2022/05/11 07:09:31;;;;;;;3.50;0.90;;;;;;;18.14;27.92;99072.46;104902;1271;76093;-23
2022/05/11 07:12:20;;;;;;;1.70;0.90;;;;;;;18.32;28.24;99068.87;104926;1271;74677;-26
2022/05/11 07:14:51;;;;;;;3.30;1.20;;;;;;;18.31;28.44;99068.61;104752;1271;61042;-25
2022/05/11 07:17:34;;;;;;;2.70;0.90;;;;;;;18.49;27.84;99064.50;105086;1273;61150;-28
2022/05/11 07:20:06;;;;;;;3.10;0.90;;;;;;;18.64;27.80;99067.87;105018;1274;73304;-26
2022/05/11 07:22:40;;;;;;;3.50;1.00;;;;;;;18.32;28.35;99068.66;105079;1273;75945;-25
2022/05/11 07:25:10;;;;;;;1.60;1.00;;;;;;;18.45;28.40;99067.75;105092;1273;74390;-25
2022/05/11 07:27:39;;;;;;;2.20;0.90;;;;;;;18.45;27.36;99067.88;104856;1274;61182;-24
2022/05/11 07:30:09;;;;;;;2.00;1.20;;;;;;;18.66;27.34;99068.71;104681;1274;388669;-25
2022/05/11 07:32:38;;;;;;;3.90;1.00;;;;;;;18.86;28.19;99067.23;104691;1273;75632;-25
2022/05/11 07:35:08;;;;;;;5.40;1.20;;;;;;;18.77;27.80;99066.67;104657;1273;76885;-25
2022/05/11 07:37:36;;;;;;;1.20;0.70;;;;;;;18.47;27.67;99064.70;104645;1273;73575;-24
2022/05/11 07:40:06;;;;;;;2.80;1.60;;;;;;;18.55;27.55;99055.18;104670;1274;62332;-26
2022/05/11 07:42:35;;;;;;;2.00;1.10;;;;;;;18.30;27.28;99059.91;104860;1274;62115;-25
2022/05/11 07:45:04;;;;;;;2.20;1.70;;;;;;;18.61;27.83;99054.33;104804;1273;75508;-25
2022/05/11 07:47:33;;;;;;;1.10;0.80;;;;;;;18.92;27.55;99057.30;104841;1274;76115;-26
2022/05/11 07:50:02;;;;;;;3.30;1.00;;;;;;;19.15;26.80;99057.91;105095;1273;74316;-27
2022/05/11 07:52:32;;;;;;;1.50;0.80;;;;;;;18.89;26.73;99056.60;105129;1273;61922;-27
2022/05/11 07:55:00;;;;;;;2.80;1.10;;;;;;;18.35;27.20;99054.41;105114;1274;61184;-28
2022/05/11 08:00:16;;;;;;;1.40;0.80;;;;;;;18.56;26.90;99060.15;105037;1273;76080;-25
2022/05/11 08:02:45;;;;;;;1.40;0.90;;;;;;;19.09;26.12;99060.45;105097;1273;74555;-26
2022/05/11 08:05:16;;;;;;;3.10;1.10;;;;;;;19.35;26.45;99060.19;104951;1273;62064;-26
2022/05/11 08:07:46;;;;;;;2.30;1.10;;;;;;;19.22;26.67;99059.82;104445;1275;61108;-26
2022/05/11 08:10:19;;;;;;;2.00;1.00;;;;;;;19.45;25.77;99058.19;104693;1273;75332;-26
2022/05/11 08:12:49;;;;;;;2.60;0.80;;;;;;;19.29;24.92;99054.38;104739;1273;75840;-27
2022/05/11 08:15:18;;;;;;;3.30;0.80;;;;;;;19.32;24.88;99055.82;105116;1273;74530;-23
2022/05/11 08:17:47;;;;;;;3.50;1.10;;;;;;;19.51;25.18;99056.89;104762;1274;61171;-24
2022/05/11 08:20:18;;;;;;;3.20;1.10;;;;;;;19.62;25.92;99050.46;104845;1273;61198;-25
2022/05/11 08:22:48;;;;;;;1.40;0.80;;;;;;;19.54;24.73;99045.69;104696;1274;75593;-28
2022/05/11 08:25:22;;;;;;;5.40;1.20;;;;;;;19.43;26.27;99047.45;104880;1273;74954;-27
2022/05/11 08:27:51;;;;;;;1.60;1.00;;;;;;;19.46;25.70;99044.14;104672;1273;72840;-28
2022/05/11 08:33:24;;;;;;;3.70;1.00;;;;;;;20.10;24.02;99031.39;104786;1273;61994;-27
2022/05/11 08:36:19;;;;;;;2.10;0.70;;;;;;;20.43;24.70;99026.41;104875;1273;75544;-26
2022/05/11 08:38:49;;;;;;;3.30;1.10;;;;;;;20.04;25.03;99022.86;104489;1274;75156;-28
2022/05/11 08:41:34;;;;;;;7.00;1.10;;;;;;;19.79;26.38;99016.80;104499;1273;73188;-28
2022/05/11 08:44:08;;;;;;;3.90;1.20;;;;;;;19.90;25.14;99020.06;105082;1274;62149;-28
2022/05/11 08:47:02;;;;;;;2.00;0.80;;;;;;;20.21;25.40;99016.73;105093;1274;61378;-26
2022/05/11 08:49:42;;;;;;;4.60;1.10;;;;;;;20.58;24.75;99021.86;104988;1273;74104;-28
2022/05/11 08:52:17;;;;;;;1.60;0.70;;;;;;;20.78;23.26;99022.64;104703;1273;75986;-27
2022/05/11 08:54:50;;;;;;;5.00;0.90;;;;;;;20.85;23.44;99017.49;104715;1274;74477;-27
2022/05/11 08:57:26;;;;;;;;;;;;;;;21.17;23.89;99017.73;104662;1273;61275;-28
2022/05/11 09:00:06;;;;;;;4.30;1.10;;;;;;;21.56;23.19;99013.73;104641;1273;61148;-26
2022/05/11 09:02:42;;;;;;;2.00;0.90;;;;;;;21.40;23.86;99011.41;104558;1273;75859;-26
2022/05/11 09:05:16;;;;;;;1.50;0.80;;;;;;;20.81;24.12;99007.68;104630;1274;75835;-25
2022/05/11 09:07:48;;;;;;;2.00;0.80;;;;;;;20.74;24.43;99014.05;104556;1273;74235;-26
2022/05/11 09:10:28;;;;;;;1.50;0.80;;;;;;;21.18;23.61;99004.17;104587;1273;61170;-27
2022/05/11 09:13:05;;;;;;;1.80;0.90;;;;;;;21.25;23.90;98998.05;105097;1274;62351;-28
2022/05/11 09:15:53;;;;;;;2.20;0.80;;;;;;;20.84;24.05;98992.15;105094;1271;75930;-59
2022/05/11 09:18:23;;;;;;;2.90;0.80;;;;;;;20.22;24.65;98991.00;105115;1271;76507;-25
2022/05/11 09:20:52;;;;;;;1.30;0.70;;;;;;;19.78;26.36;98992.68;104847;1274;74921;-25
2022/05/11 09:24:22;;;;;;;13.90;1.10;;;;;;;19.86;26.48;98994.41;105115;1272;61033;-26
2022/05/11 09:27:01;;;;;;;1.50;0.80;;;;;;;20.23;25.67;98994.63;104240;1281;61140;-26
2022/05/11 09:29:41;;;;;;;2.30;1.00;;;;;;;20.48;24.85;98995.98;104464;1281;75707;-26
2022/05/11 09:32:23;;;;;;;4.90;0.90;;;;;;;21.00;24.23;98989.36;104349;1281;74192;-27
2022/05/11 09:34:51;;;;;;;2.80;0.80;;;;;;;21.39;22.66;98987.70;104370;1281;74481;-28
2022/05/11 09:37:35;;;;;;;1.60;1.00;;;;;;;21.68;22.63;98986.68;104453;1280;61642;-27
2022/05/11 09:40:17;;;;;;;3.50;0.70;;;;;;;22.24;22.52;98979.94;104395;1281;62162;-26
2022/05/11 09:42:57;;;;;;;3.40;0.90;;;;;;;22.31;22.38;98971.47;104275;1281;73879;-27
2022/05/11 09:45:47;;;;;;;2.90;0.90;;;;;;;22.02;23.34;98970.48;104119;1280;75970;-27
2022/05/11 09:48:22;;;;;;;1.20;0.50;;;;;;;21.61;22.63;98972.80;104350;1281;73210;-26
2022/05/11 09:50:53;;;;;;;2.90;1.40;;;;;;;21.78;24.91;98974.12;104454;1279;61732;-26
2022/05/11 09:53:24;;;;;;;0.90;0.70;;;;;;;21.89;22.38;98970.11;104383;1280;61340;-25
2022/05/11 09:55:53;;;;;;;2.90;0.70;;;;;;;21.98;22.82;98965.44;104316;1280;75402;-26
2022/05/11 09:58:31;;;;;;;2.70;0.80;;;;;;;21.57;22.19;98967.52;104266;1279;76285;-26
2022/05/11 10:01:10;;;;;;;2.40;0.80;;;;;;;21.62;22.26;98971.25;104476;1272;74497;-27
2022/05/11 10:03:42;;;;;;;2.60;1.00;;;;;;;21.67;23.59;98966.05;105081;1272;62063;-25
2022/05/11 10:06:10;;;;;;;2.90;0.80;;;;;;;21.23;23.56;98964.36;104835;1272;62286;-28
2022/05/11 10:08:41;;;;;;;2.40;1.10;;;;;;;21.74;23.66;98960.90;105124;1271;75503;-25
2022/05/11 10:11:18;;;;;;;1.80;0.60;;;;;;;21.24;23.68;98957.61;104774;1271;75174;-27
2022/05/11 10:21:50;;;;;;;53.00;3.60;;;;;;;21.44;22.91;98957.40;104729;1271;73390;-26
2022/05/11 10:22:39;;;;;;;1.30;1.00;;;;;;;21.68;22.06;98948.81;104899;1273;75589;-25
2022/05/11 10:25:11;;;;;;;3.60;0.90;;;;;;;22.01;21.51;98945.33;104836;1273;75031;-27
2022/05/11 10:27:53;;;;;;;1.80;0.90;;;;;;;22.32;21.86;98943.59;105029;1273;74374;-25
2022/05/11 10:30:28;;;;;;;4.00;1.00;;;;;;;22.54;21.01;98941.48;105104;1273;61177;-26
2022/05/11 10:33:21;;;;;;;2.60;1.10;;;;;;;22.62;21.87;98932.73;104865;1273;61835;-27
2022/05/11 10:36:07;;;;;;;4.20;1.00;;;;;;;22.44;22.64;98927.08;104734;1273;75507;-25
2022/05/11 10:38:55;;;;;;;5.90;1.10;;;;;;;21.84;22.37;98934.50;105054;1273;76031;-25
2022/05/11 10:41:37;;;;;;;3.90;1.00;;;;;;;21.87;22.21;98935.20;104941;1273;74404;-25
2022/05/11 10:44:41;;;;;;;1.30;0.80;;;;;;;22.06;22.17;98933.27;105067;1273;61157;-25
2022/05/11 10:47:43;;;;;;;5.60;1.20;;;;;;;22.48;22.47;98928.30;104708;1273;62215;-25
2022/05/11 10:50:15;;;;;;;7.60;1.10;;;;;;;22.31;21.99;98934.58;105117;1273;74542;-25
2022/05/11 10:52:59;;;;;;;2.80;0.90;;;;;;;22.45;21.73;98917.35;104983;1273;76008;-25
2022/05/11 10:55:34;;;;;;;2.60;1.30;;;;;;;22.21;21.32;98927.20;104989;1273;74441;-25
2022/05/11 10:58:24;;;;;;;1.60;0.90;;;;;;;22.14;20.75;98926.48;104852;1273;62091;-25
2022/05/11 11:01:00;;;;;;;3.70;1.10;;;;;;;23.07;21.71;98928.63;104963;1273;61072;-25
2022/05/11 11:03:45;;;;;;;3.30;1.10;;;;;;;23.22;20.92;98921.48;105088;1273;75592;-25
2022/05/11 11:09:18;;;;;;;2.80;1.00;;;;;;;22.70;20.66;98909.20;104708;1273;74365;-25
2022/05/11 11:12:22;;;;;;;3.10;1.00;;;;;;;22.45;21.33;98902.17;105103;1273;61273;-25
2022/05/11 11:14:52;;;;;;;1.80;0.80;;;;;;;22.29;21.15;98907.29;104410;1281;62962;-26
2022/05/11 11:17:21;;;;;;;1.80;0.70;;;;;;;22.61;20.88;98900.54;104337;1281;75363;-25
2022/05/11 11:19:52;;;;;;;2.60;1.10;;;;;;;22.50;20.14;98896.38;104315;1279;76213;-25
2022/05/11 11:22:21;;;;;;;4.20;0.90;;;;;;;22.84;21.27;98895.21;104198;1279;72686;-25
2022/05/11 11:25:14;;;;;;;2.80;1.00;;;;;;;22.58;21.46;98895.30;104478;1280;61243;-25
2022/05/11 11:28:02;;;;;;;3.10;1.10;;;;;;;22.61;19.83;98886.41;104503;1279;61126;-25
2022/05/11 11:30:31;;;;;;;4.00;1.10;;;;;;;23.05;20.64;98884.84;104456;1280;74391;-25
2022/05/11 11:33:15;;;;;;;1.80;0.80;;;;;;;22.72;19.94;98882.29;104203;1280;75163;-25
2022/05/11 11:35:57;;;;;;;4.90;0.90;;;;;;;22.62;21.48;98870.77;104405;1280;74367;-26
2022/05/11 11:38:41;;;;;;;2.90;0.90;;;;;;;22.41;22.88;98878.02;104334;1281;62555;-25
2022/05/11 11:41:15;;;;;;;5.00;0.90;;;;;;;22.61;21.19;98875.95;104478;1280;61934;-27
2022/05/11 11:44:03;;;;;;;5.00;1.50;;;;;;;22.59;20.73;98873.52;104447;1279;75708;-26
2022/05/11 11:46:38;;;;;;;6.00;1.30;;;;;;;22.57;22.60;98870.00;104395;1280;76042;-26
2022/05/11 11:49:27;;;;;;;2.80;0.90;;;;;;;22.55;23.26;98869.59;104595;1273;73580;-26
2022/05/11 11:52:07;;;;;;;2.40;0.80;;;;;;;22.17;22.02;98867.10;105135;1274;62009;-27
2022/05/11 11:54:37;;;;;;;2.00;1.00;;;;;;;21.66;23.08;98865.81;104851;1273;61803;-27
2022/05/11 11:57:12;;;;;;;1.50;0.90;;;;;;;21.59;23.34;98858.91;105090;1273;75560;-26
2022/05/11 11:59:51;;;;;;;2.70;1.00;;;;;;;21.24;22.81;98840.79;105123;1274;75801;-27
2022/05/11 12:02:29;;;;;;;3.40;0.90;;;;;;;21.16;22.86;98854.41;104945;1273;74160;-27
2022/05/11 12:05:04;;;;;;;1.30;0.90;;;;;;;21.23;22.54;98847.73;104869;1273;60943;-26
2022/05/11 12:16:54;;;;;;;2.70;1.10;;;;;;;21.01;22.24;98849.14;105081;1273;74080;-27
2022/05/11 12:19:24;;;;;;;2.10;1.00;;;;;;;21.30;22.58;98832.04;105009;1272;61227;-27
2022/05/11 12:22:04;;;;;;;3.80;1.00;;;;;;;21.15;23.67;98832.33;104615;1273;62126;-27
2022/05/11 12:24:35;;;;;;;3.60;1.00;;;;;;;21.14;23.68;98837.33;104905;1274;75591;-27
2022/05/11 12:27:13;;;;;;;4.90;1.10;;;;;;;21.14;22.42;98831.34;104781;1273;75221;-27